sensor_id;sensor_type;location;lat;lon;timestamp;P1;durP1;ratioP1;P2;durP2;ratioP2
28988;SDS011;16089;59.952;10.818;2023-04-03T00:00:55;2.45;;;0.90;;
28988;SDS011;16089;59.952;10.818;2023-04-03T00:03:22;3.42;;;0.93;;
28988;SDS011;16089;59.952;10.818;2023-04-03T00:05:48;5.15;;;0.90;;
28988;SDS011;16089;59.952;10.818;2023-04-03T00:08:16;3.78;;;0.88;;
28988;SDS011;16089;59.952;10.818;2023-04-03T00:10:42;3.38;;;0.90;;
28988;SDS011;16089;59.952;10.818;2023-04-03T00:13:09;2.75;;;0.82;;
28988;SDS011;16089;59.952;10.818;2023-04-03T00:15:36;3.92;;;0.80;;
28988;SDS011;16089;59.952;10.818;2023-04-03T00:18:02;2.65;;;0.80;;
28988;SDS011;16089;59.952;10.818;2023-04-03T00:20:29;3.33;;;0.70;;
28988;SDS011;16089;59.952;10.818;2023-04-03T00:22:55;2.13;;;0.73;;
28988;SDS011;16089;59.952;10.818;2023-04-03T00:25:23;3.50;;;0.98;;
28988;SDS011;16089;59.952;10.818;2023-04-03T00:27:49;2.65;;;0.90;;
28988;SDS011;16089;59.952;10.818;2023-04-03T00:30:17;3.58;;;1.00;;
28988;SDS011;16089;59.952;10.818;2023-04-03T00:32:43;2.85;;;0.80;;
28988;SDS011;16089;59.952;10.818;2023-04-03T00:35:10;5.10;;;1.10;;
28988;SDS011;16089;59.952;10.818;2023-04-03T00:37:36;3.60;;;1.02;;
28988;SDS011;16089;59.952;10.818;2023-04-03T00:40:04;2.13;;;0.73;;
28988;SDS011;16089;59.952;10.818;2023-04-03T00:42:32;3.72;;;0.93;;
28988;SDS011;16089;59.952;10.818;2023-04-03T00:47:43;3.72;;;0.95;;
28988;SDS011;16089;59.952;10.818;2023-04-03T00:50:10;2.75;;;1.00;;
28988;SDS011;16089;59.952;10.818;2023-04-03T00:52:36;2.28;;;0.90;;
28988;SDS011;16089;59.952;10.818;2023-04-03T00:55:04;3.45;;;0.95;;
28988;SDS011;16089;59.952;10.818;2023-04-03T00:57:33;6.25;;;1.00;;
28988;SDS011;16089;59.952;10.818;2023-04-03T01:00:02;3.15;;;1.05;;
28988;SDS011;16089;59.952;10.818;2023-04-03T01:02:28;4.38;;;0.85;;
28988;SDS011;16089;59.952;10.818;2023-04-03T01:04:55;2.45;;;1.00;;
28988;SDS011;16089;59.952;10.818;2023-04-03T01:07:21;3.25;;;1.00;;
28988;SDS011;16089;59.952;10.818;2023-04-03T01:09:48;4.38;;;1.00;;
28988;SDS011;16089;59.952;10.818;2023-04-03T01:12:16;5.93;;;1.10;;
28988;SDS011;16089;59.952;10.818;2023-04-03T01:14:44;3.28;;;1.27;;
28988;SDS011;16089;59.952;10.818;2023-04-03T01:17:26;2.75;;;0.90;;
28988;SDS011;16089;59.952;10.818;2023-04-03T01:19:54;2.72;;;0.95;;
28988;SDS011;16089;59.952;10.818;2023-04-03T01:22:23;3.67;;;1.00;;
28988;SDS011;16089;59.952;10.818;2023-04-03T01:24:51;5.78;;;0.85;;
28988;SDS011;16089;59.952;10.818;2023-04-03T01:27:18;5.28;;;1.23;;
28988;SDS011;16089;59.952;10.818;2023-04-03T01:29:46;4.40;;;0.93;;
28988;SDS011;16089;59.952;10.818;2023-04-03T01:32:13;4.22;;;1.00;;
28988;SDS011;16089;59.952;10.818;2023-04-03T01:34:40;3.92;;;0.98;;
28988;SDS011;16089;59.952;10.818;2023-04-03T01:37:06;2.83;;;1.05;;
28988;SDS011;16089;59.952;10.818;2023-04-03T01:39:32;4.78;;;1.20;;
28988;SDS011;16089;59.952;10.818;2023-04-03T01:41:59;3.15;;;0.95;;
28988;SDS011;16089;59.952;10.818;2023-04-03T01:44:26;2.80;;;0.90;;
28988;SDS011;16089;59.952;10.818;2023-04-03T01:46:52;5.00;;;1.13;;
28988;SDS011;16089;59.952;10.818;2023-04-03T01:49:20;4.18;;;1.02;;
28988;SDS011;16089;59.952;10.818;2023-04-03T01:51:46;2.35;;;0.93;;
28988;SDS011;16089;59.952;10.818;2023-04-03T01:54:12;6.95;;;1.10;;
28988;SDS011;16089;59.952;10.818;2023-04-03T01:56:39;2.47;;;1.00;;
28988;SDS011;16089;59.952;10.818;2023-04-03T01:59:05;4.05;;;1.20;;
28988;SDS011;16089;59.952;10.818;2023-04-03T02:01:32;7.28;;;1.20;;
28988;SDS011;16089;59.952;10.818;2023-04-03T02:03:58;5.35;;;1.20;;
28988;SDS011;16089;59.952;10.818;2023-04-03T02:06:26;4.07;;;1.05;;
28988;SDS011;16089;59.952;10.818;2023-04-03T02:08:52;6.20;;;1.50;;
28988;SDS011;16089;59.952;10.818;2023-04-03T02:11:18;4.32;;;1.00;;
28988;SDS011;16089;59.952;10.818;2023-04-03T02:13:45;3.83;;;0.88;;
28988;SDS011;16089;59.952;10.818;2023-04-03T02:16:11;3.33;;;0.98;;
28988;SDS011;16089;59.952;10.818;2023-04-03T02:18:38;4.90;;;0.95;;
28988;SDS011;16089;59.952;10.818;2023-04-03T02:21:05;4.40;;;1.20;;
28988;SDS011;16089;59.952;10.818;2023-04-03T02:23:32;2.80;;;0.98;;
28988;SDS011;16089;59.952;10.818;2023-04-03T02:26:05;3.13;;;0.93;;
28988;SDS011;16089;59.952;10.818;2023-04-03T02:28:32;3.53;;;1.08;;
28988;SDS011;16089;59.952;10.818;2023-04-03T02:30:58;4.65;;;1.00;;
28988;SDS011;16089;59.952;10.818;2023-04-03T02:33:25;2.28;;;0.80;;
28988;SDS011;16089;59.952;10.818;2023-04-03T02:35:52;3.80;;;1.25;;
28988;SDS011;16089;59.952;10.818;2023-04-03T02:38:18;4.72;;;0.90;;
28988;SDS011;16089;59.952;10.818;2023-04-03T02:40:46;2.03;;;0.75;;
28988;SDS011;16089;59.952;10.818;2023-04-03T02:43:12;3.63;;;1.00;;
28988;SDS011;16089;59.952;10.818;2023-04-03T02:45:39;4.53;;;1.20;;
28988;SDS011;16089;59.952;10.818;2023-04-03T02:48:05;3.80;;;1.15;;
28988;SDS011;16089;59.952;10.818;2023-04-03T02:50:32;3.95;;;0.98;;
28988;SDS011;16089;59.952;10.818;2023-04-03T02:52:58;1.92;;;0.95;;
28988;SDS011;16089;59.952;10.818;2023-04-03T02:55:24;3.35;;;1.10;;
28988;SDS011;16089;59.952;10.818;2023-04-03T02:57:52;3.40;;;0.93;;
28988;SDS011;16089;59.952;10.818;2023-04-03T03:00:19;4.20;;;0.85;;
28988;SDS011;16089;59.952;10.818;2023-04-03T03:02:45;4.20;;;0.90;;
28988;SDS011;16089;59.952;10.818;2023-04-03T03:05:12;3.65;;;1.10;;
28988;SDS011;16089;59.952;10.818;2023-04-03T03:07:38;4.43;;;1.10;;
28988;SDS011;16089;59.952;10.818;2023-04-03T03:10:05;4.45;;;1.05;;
28988;SDS011;16089;59.952;10.818;2023-04-03T03:12:31;6.30;;;1.05;;
28988;SDS011;16089;59.952;10.818;2023-04-03T03:14:59;4.15;;;1.08;;
28988;SDS011;16089;59.952;10.818;2023-04-03T03:17:25;5.47;;;1.23;;
28988;SDS011;16089;59.952;10.818;2023-04-03T03:19:52;2.00;;;0.80;;
28988;SDS011;16089;59.952;10.818;2023-04-03T03:22:18;8.68;;;1.00;;
28988;SDS011;16089;59.952;10.818;2023-04-03T03:24:45;3.05;;;0.90;;
28988;SDS011;16089;59.952;10.818;2023-04-03T03:27:11;4.25;;;1.13;;
28988;SDS011;16089;59.952;10.818;2023-04-03T03:29:38;2.20;;;1.00;;
28988;SDS011;16089;59.952;10.818;2023-04-03T03:32:06;2.40;;;0.73;;
28988;SDS011;16089;59.952;10.818;2023-04-03T03:34:32;2.92;;;0.80;;
28988;SDS011;16089;59.952;10.818;2023-04-03T03:36:58;4.30;;;1.00;;
28988;SDS011;16089;59.952;10.818;2023-04-03T03:39:25;3.15;;;1.00;;
28988;SDS011;16089;59.952;10.818;2023-04-03T03:41:51;2.92;;;1.02;;
28988;SDS011;16089;59.952;10.818;2023-04-03T03:44:18;4.10;;;1.20;;
28988;SDS011;16089;59.952;10.818;2023-04-03T03:46:44;5.20;;;1.13;;
28988;SDS011;16089;59.952;10.818;2023-04-03T03:49:12;4.15;;;1.00;;
28988;SDS011;16089;59.952;10.818;2023-04-03T03:51:38;3.10;;;0.90;;
28988;SDS011;16089;59.952;10.818;2023-04-03T03:54:05;3.35;;;1.08;;
28988;SDS011;16089;59.952;10.818;2023-04-03T03:56:32;4.70;;;1.30;;
28988;SDS011;16089;59.952;10.818;2023-04-03T03:58:58;3.83;;;1.23;;
28988;SDS011;16089;59.952;10.818;2023-04-03T04:01:25;5.72;;;1.00;;
28988;SDS011;16089;59.952;10.818;2023-04-03T04:03:51;3.72;;;1.10;;
28988;SDS011;16089;59.952;10.818;2023-04-03T04:06:20;3.75;;;1.00;;
28988;SDS011;16089;59.952;10.818;2023-04-03T04:08:46;5.95;;;1.17;;
28988;SDS011;16089;59.952;10.818;2023-04-03T04:11:13;3.50;;;1.08;;
28988;SDS011;16089;59.952;10.818;2023-04-03T04:13:39;4.95;;;1.00;;
28988;SDS011;16089;59.952;10.818;2023-04-03T04:16:06;5.07;;;0.88;;
28988;SDS011;16089;59.952;10.818;2023-04-03T04:18:32;4.05;;;0.85;;
28988;SDS011;16089;59.952;10.818;2023-04-03T04:20:59;4.85;;;0.90;;
28988;SDS011;16089;59.952;10.818;2023-04-03T04:23:26;4.55;;;1.00;;
28988;SDS011;16089;59.952;10.818;2023-04-03T04:25:53;3.88;;;1.48;;
28988;SDS011;16089;59.952;10.818;2023-04-03T04:28:19;6.13;;;1.10;;
28988;SDS011;16089;59.952;10.818;2023-04-03T04:30:45;5.78;;;1.20;;
28988;SDS011;16089;59.952;10.818;2023-04-03T04:33:12;3.30;;;0.95;;
28988;SDS011;16089;59.952;10.818;2023-04-03T04:35:39;2.53;;;0.95;;
28988;SDS011;16089;59.952;10.818;2023-04-03T04:38:05;7.32;;;1.20;;
28988;SDS011;16089;59.952;10.818;2023-04-03T04:40:35;8.25;;;1.45;;
28988;SDS011;16089;59.952;10.818;2023-04-03T04:43:02;3.55;;;0.90;;
28988;SDS011;16089;59.952;10.818;2023-04-03T04:45:29;8.80;;;1.20;;
28988;SDS011;16089;59.952;10.818;2023-04-03T04:47:55;6.80;;;1.10;;
28988;SDS011;16089;59.952;10.818;2023-04-03T04:50:22;10.02;;;1.20;;
28988;SDS011;16089;59.952;10.818;2023-04-03T04:52:48;2.65;;;1.02;;
28988;SDS011;16089;59.952;10.818;2023-04-03T04:55:15;6.75;;;1.10;;
28988;SDS011;16089;59.952;10.818;2023-04-03T04:57:42;5.97;;;1.10;;
28988;SDS011;16089;59.952;10.818;2023-04-03T05:00:09;4.25;;;1.23;;
28988;SDS011;16089;59.952;10.818;2023-04-03T05:02:35;8.05;;;1.20;;
28988;SDS011;16089;59.952;10.818;2023-04-03T05:05:02;4.28;;;0.95;;
28988;SDS011;16089;59.952;10.818;2023-04-03T05:07:29;7.72;;;1.02;;
28988;SDS011;16089;59.952;10.818;2023-04-03T05:09:55;5.20;;;1.27;;
28988;SDS011;16089;59.952;10.818;2023-04-03T05:12:21;5.03;;;1.27;;
28988;SDS011;16089;59.952;10.818;2023-04-03T05:14:49;6.40;;;1.40;;
28988;SDS011;16089;59.952;10.818;2023-04-03T05:17:15;7.03;;;1.50;;
28988;SDS011;16089;59.952;10.818;2023-04-03T05:19:42;9.40;;;1.55;;
28988;SDS011;16089;59.952;10.818;2023-04-03T05:22:08;5.43;;;1.38;;
28988;SDS011;16089;59.952;10.818;2023-04-03T05:24:35;13.18;;;1.70;;
28988;SDS011;16089;59.952;10.818;2023-04-03T05:27:01;6.28;;;1.85;;
28988;SDS011;16089;59.952;10.818;2023-04-03T05:29:27;8.43;;;1.80;;
28988;SDS011;16089;59.952;10.818;2023-04-03T05:31:55;6.15;;;1.70;;
28988;SDS011;16089;59.952;10.818;2023-04-03T05:34:21;7.65;;;2.35;;
28988;SDS011;16089;59.952;10.818;2023-04-03T05:36:48;7.47;;;2.20;;
28988;SDS011;16089;59.952;10.818;2023-04-03T05:39:14;8.57;;;2.15;;
28988;SDS011;16089;59.952;10.818;2023-04-03T05:41:40;9.07;;;2.20;;
28988;SDS011;16089;59.952;10.818;2023-04-03T05:44:07;8.00;;;1.90;;
28988;SDS011;16089;59.952;10.818;2023-04-03T05:46:33;5.97;;;1.75;;
28988;SDS011;16089;59.952;10.818;2023-04-03T05:49:01;11.95;;;2.33;;
28988;SDS011;16089;59.952;10.818;2023-04-03T05:51:28;12.60;;;2.28;;
28988;SDS011;16089;59.952;10.818;2023-04-03T05:53:58;10.23;;;1.98;;
28988;SDS011;16089;59.952;10.818;2023-04-03T05:56:26;13.25;;;2.65;;
28988;SDS011;16089;59.952;10.818;2023-04-03T05:58:53;11.10;;;2.22;;
28988;SDS011;16089;59.952;10.818;2023-04-03T06:01:20;8.55;;;1.80;;
28988;SDS011;16089;59.952;10.818;2023-04-03T06:03:48;6.75;;;1.90;;
28988;SDS011;16089;59.952;10.818;2023-04-03T06:06:15;10.52;;;2.28;;
28988;SDS011;16089;59.952;10.818;2023-04-03T06:08:42;7.78;;;2.28;;
28988;SDS011;16089;59.952;10.818;2023-04-03T06:11:08;14.90;;;2.13;;
28988;SDS011;16089;59.952;10.818;2023-04-03T06:13:35;7.53;;;2.13;;
28988;SDS011;16089;59.952;10.818;2023-04-03T06:16:02;12.48;;;2.80;;
28988;SDS011;16089;59.952;10.818;2023-04-03T06:18:29;10.25;;;2.10;;
28988;SDS011;16089;59.952;10.818;2023-04-03T06:20:56;10.35;;;2.50;;
28988;SDS011;16089;59.952;10.818;2023-04-03T06:23:24;11.43;;;2.65;;
28988;SDS011;16089;59.952;10.818;2023-04-03T06:25:51;9.52;;;2.58;;
28988;SDS011;16089;59.952;10.818;2023-04-03T06:28:19;10.57;;;2.63;;
28988;SDS011;16089;59.952;10.818;2023-04-03T06:30:46;8.35;;;3.33;;
28988;SDS011;16089;59.952;10.818;2023-04-03T06:33:12;10.63;;;2.88;;
28988;SDS011;16089;59.952;10.818;2023-04-03T06:35:39;15.20;;;3.50;;
28988;SDS011;16089;59.952;10.818;2023-04-03T06:38:06;20.40;;;2.75;;
28988;SDS011;16089;59.952;10.818;2023-04-03T06:40:35;10.88;;;3.90;;
28988;SDS011;16089;59.952;10.818;2023-04-03T06:43:02;10.80;;;2.97;;
28988;SDS011;16089;59.952;10.818;2023-04-03T06:45:28;9.13;;;2.60;;
28988;SDS011;16089;59.952;10.818;2023-04-03T06:47:55;10.27;;;2.78;;
28988;SDS011;16089;59.952;10.818;2023-04-03T06:50:21;12.70;;;2.53;;
28988;SDS011;16089;59.952;10.818;2023-04-03T06:52:47;7.00;;;2.40;;
28988;SDS011;16089;59.952;10.818;2023-04-03T06:55:14;12.35;;;2.60;;
28988;SDS011;16089;59.952;10.818;2023-04-03T06:57:41;12.52;;;2.55;;
28988;SDS011;16089;59.952;10.818;2023-04-03T07:00:08;10.45;;;3.72;;
28988;SDS011;16089;59.952;10.818;2023-04-03T07:02:35;6.47;;;2.50;;
28988;SDS011;16089;59.952;10.818;2023-04-03T07:05:02;7.97;;;2.50;;
28988;SDS011;16089;59.952;10.818;2023-04-03T07:07:28;7.63;;;2.60;;
28988;SDS011;16089;59.952;10.818;2023-04-03T07:09:55;10.45;;;2.47;;
28988;SDS011;16089;59.952;10.818;2023-04-03T07:12:21;10.45;;;2.65;;
28988;SDS011;16089;59.952;10.818;2023-04-03T07:14:49;10.38;;;2.40;;
28988;SDS011;16089;59.952;10.818;2023-04-03T07:17:15;9.07;;;2.53;;
28988;SDS011;16089;59.952;10.818;2023-04-03T07:19:41;8.43;;;2.30;;
28988;SDS011;16089;59.952;10.818;2023-04-03T07:22:08;9.82;;;2.13;;
28988;SDS011;16089;59.952;10.818;2023-04-03T07:24:36;7.47;;;2.30;;
28988;SDS011;16089;59.952;10.818;2023-04-03T07:27:02;15.30;;;2.25;;
28988;SDS011;16089;59.952;10.818;2023-04-03T07:29:29;9.85;;;2.13;;
28988;SDS011;16089;59.952;10.818;2023-04-03T07:31:57;11.63;;;3.15;;
28988;SDS011;16089;59.952;10.818;2023-04-03T07:34:23;6.28;;;1.95;;
28988;SDS011;16089;59.952;10.818;2023-04-03T07:36:50;10.00;;;2.08;;
28988;SDS011;16089;59.952;10.818;2023-04-03T07:39:16;7.97;;;2.25;;
28988;SDS011;16089;59.952;10.818;2023-04-03T07:41:43;5.53;;;2.25;;
28988;SDS011;16089;59.952;10.818;2023-04-03T07:44:09;12.82;;;2.45;;
28988;SDS011;16089;59.952;10.818;2023-04-03T07:46:36;7.20;;;2.20;;
28988;SDS011;16089;59.952;10.818;2023-04-03T07:49:03;10.05;;;2.28;;
28988;SDS011;16089;59.952;10.818;2023-04-03T07:51:30;6.25;;;2.03;;
28988;SDS011;16089;59.952;10.818;2023-04-03T07:53:56;8.35;;;2.22;;
28988;SDS011;16089;59.952;10.818;2023-04-03T07:56:23;9.82;;;2.22;;
28988;SDS011;16089;59.952;10.818;2023-04-03T07:58:50;6.35;;;2.20;;
28988;SDS011;16089;59.952;10.818;2023-04-03T08:01:16;7.13;;;2.45;;
28988;SDS011;16089;59.952;10.818;2023-04-03T08:03:42;7.72;;;2.30;;
28988;SDS011;16089;59.952;10.818;2023-04-03T08:06:10;8.85;;;2.90;;
28988;SDS011;16089;59.952;10.818;2023-04-03T08:08:38;7.18;;;2.33;;
28988;SDS011;16089;59.952;10.818;2023-04-03T08:11:05;10.93;;;2.47;;
28988;SDS011;16089;59.952;10.818;2023-04-03T08:13:33;7.97;;;2.60;;
28988;SDS011;16089;59.952;10.818;2023-04-03T08:16:06;8.60;;;2.53;;
28988;SDS011;16089;59.952;10.818;2023-04-03T08:18:33;8.75;;;2.47;;
28988;SDS011;16089;59.952;10.818;2023-04-03T08:20:59;6.57;;;2.35;;
28988;SDS011;16089;59.952;10.818;2023-04-03T08:23:27;8.18;;;2.42;;
28988;SDS011;16089;59.952;10.818;2023-04-03T08:25:53;5.18;;;2.10;;
28988;SDS011;16089;59.952;10.818;2023-04-03T08:28:19;7.35;;;2.22;;
28988;SDS011;16089;59.952;10.818;2023-04-03T08:30:46;11.60;;;2.60;;
28988;SDS011;16089;59.952;10.818;2023-04-03T08:33:12;6.20;;;2.67;;
28988;SDS011;16089;59.952;10.818;2023-04-03T08:35:39;6.57;;;2.40;;
28988;SDS011;16089;59.952;10.818;2023-04-03T08:38:06;10.43;;;2.60;;
28988;SDS011;16089;59.952;10.818;2023-04-03T08:40:34;10.25;;;3.40;;
28988;SDS011;16089;59.952;10.818;2023-04-03T08:43:03;7.93;;;3.80;;
28988;SDS011;16089;59.952;10.818;2023-04-03T08:45:34;8.55;;;3.30;;
28988;SDS011;16089;59.952;10.818;2023-04-03T08:48:04;6.88;;;2.40;;
28988;SDS011;16089;59.952;10.818;2023-04-03T08:50:33;9.55;;;2.15;;
28988;SDS011;16089;59.952;10.818;2023-04-03T08:53:02;6.70;;;2.30;;
28988;SDS011;16089;59.952;10.818;2023-04-03T08:55:32;6.65;;;2.05;;
28988;SDS011;16089;59.952;10.818;2023-04-03T08:58:02;8.18;;;2.28;;
28988;SDS011;16089;59.952;10.818;2023-04-03T09:00:30;11.43;;;2.78;;
28988;SDS011;16089;59.952;10.818;2023-04-03T09:02:58;7.32;;;2.50;;
28988;SDS011;16089;59.952;10.818;2023-04-03T09:05:29;8.95;;;2.53;;
28988;SDS011;16089;59.952;10.818;2023-04-03T09:07:58;5.97;;;2.17;;
28988;SDS011;16089;59.952;10.818;2023-04-03T09:10:29;9.00;;;2.30;;
28988;SDS011;16089;59.952;10.818;2023-04-03T09:12:58;10.00;;;2.08;;
28988;SDS011;16089;59.952;10.818;2023-04-03T09:15:27;9.88;;;2.35;;
28988;SDS011;16089;59.952;10.818;2023-04-03T09:17:58;9.23;;;2.15;;
28988;SDS011;16089;59.952;10.818;2023-04-03T09:20:27;8.15;;;2.00;;
28988;SDS011;16089;59.952;10.818;2023-04-03T09:22:56;5.80;;;2.13;;
28988;SDS011;16089;59.952;10.818;2023-04-03T09:25:23;8.57;;;2.30;;
28988;SDS011;16089;59.952;10.818;2023-04-03T09:27:51;6.07;;;2.00;;
28988;SDS011;16089;59.952;10.818;2023-04-03T09:30:19;10.50;;;2.08;;
28988;SDS011;16089;59.952;10.818;2023-04-03T09:32:48;12.30;;;2.30;;
28988;SDS011;16089;59.952;10.818;2023-04-03T09:35:16;7.95;;;2.15;;
28988;SDS011;16089;59.952;10.818;2023-04-03T09:37:44;8.45;;;2.10;;
28988;SDS011;16089;59.952;10.818;2023-04-03T09:40:30;7.05;;;1.88;;
28988;SDS011;16089;59.952;10.818;2023-04-03T09:43:00;7.88;;;2.40;;
28988;SDS011;16089;59.952;10.818;2023-04-03T09:45:28;6.45;;;1.60;;
28988;SDS011;16089;59.952;10.818;2023-04-03T09:48:12;10.10;;;1.60;;
28988;SDS011;16089;59.952;10.818;2023-04-03T09:50:52;6.38;;;1.80;;
28988;SDS011;16089;59.952;10.818;2023-04-03T09:53:25;6.50;;;2.13;;
28988;SDS011;16089;59.952;10.818;2023-04-03T09:55:52;6.00;;;1.90;;
28988;SDS011;16089;59.952;10.818;2023-04-03T09:58:23;5.10;;;1.85;;
28988;SDS011;16089;59.952;10.818;2023-04-03T10:00:53;7.07;;;2.03;;
28988;SDS011;16089;59.952;10.818;2023-04-03T10:03:24;7.60;;;2.00;;
28988;SDS011;16089;59.952;10.818;2023-04-03T10:05:51;5.32;;;1.83;;
28988;SDS011;16089;59.952;10.818;2023-04-03T10:08:20;7.53;;;2.40;;
28988;SDS011;16089;59.952;10.818;2023-04-03T10:10:49;7.63;;;1.80;;
28988;SDS011;16089;59.952;10.818;2023-04-03T10:13:31;7.32;;;1.75;;
28988;SDS011;16089;59.952;10.818;2023-04-03T10:15:59;4.72;;;1.73;;
28988;SDS011;16089;59.952;10.818;2023-04-03T10:18:31;5.82;;;1.90;;
28988;SDS011;16089;59.952;10.818;2023-04-03T10:20:59;6.40;;;1.77;;
28988;SDS011;16089;59.952;10.818;2023-04-03T10:23:28;5.78;;;1.63;;
28988;SDS011;16089;59.952;10.818;2023-04-03T10:26:01;8.55;;;1.77;;
28988;SDS011;16089;59.952;10.818;2023-04-03T10:28:31;5.47;;;1.60;;
28988;SDS011;16089;59.952;10.818;2023-04-03T10:31:02;5.65;;;1.75;;
28988;SDS011;16089;59.952;10.818;2023-04-03T10:33:39;8.07;;;1.95;;
28988;SDS011;16089;59.952;10.818;2023-04-03T10:36:07;3.00;;;1.30;;
28988;SDS011;16089;59.952;10.818;2023-04-03T10:38:39;4.65;;;1.48;;
28988;SDS011;16089;59.952;10.818;2023-04-03T10:41:08;10.43;;;1.85;;
28988;SDS011;16089;59.952;10.818;2023-04-03T10:43:38;7.70;;;1.42;;
28988;SDS011;16089;59.952;10.818;2023-04-03T10:46:09;4.80;;;1.60;;
28988;SDS011;16089;59.952;10.818;2023-04-03T10:48:46;9.70;;;2.53;;
28988;SDS011;16089;59.952;10.818;2023-04-03T10:51:16;8.57;;;2.40;;
28988;SDS011;16089;59.952;10.818;2023-04-03T10:53:48;7.40;;;1.70;;
28988;SDS011;16089;59.952;10.818;2023-04-03T10:56:18;8.23;;;1.80;;
28988;SDS011;16089;59.952;10.818;2023-04-03T10:58:48;7.03;;;1.48;;
28988;SDS011;16089;59.952;10.818;2023-04-03T11:01:18;5.35;;;1.40;;
28988;SDS011;16089;59.952;10.818;2023-04-03T11:03:48;7.63;;;1.60;;
28988;SDS011;16089;59.952;10.818;2023-04-03T11:06:17;9.57;;;1.55;;
28988;SDS011;16089;59.952;10.818;2023-04-03T11:08:44;6.47;;;1.60;;
28988;SDS011;16089;59.952;10.818;2023-04-03T11:11:13;5.82;;;2.28;;
28988;SDS011;16089;59.952;10.818;2023-04-03T11:13:41;4.93;;;1.35;;
28988;SDS011;16089;59.952;10.818;2023-04-03T11:16:09;6.10;;;1.63;;
28988;SDS011;16089;59.952;10.818;2023-04-03T11:18:40;8.02;;;1.50;;
28988;SDS011;16089;59.952;10.818;2023-04-03T11:21:09;10.82;;;1.52;;
28988;SDS011;16089;59.952;10.818;2023-04-03T11:23:38;9.43;;;2.33;;
28988;SDS011;16089;59.952;10.818;2023-04-03T11:26:07;9.27;;;1.67;;
28988;SDS011;16089;59.952;10.818;2023-04-03T11:28:35;8.85;;;1.52;;
28988;SDS011;16089;59.952;10.818;2023-04-03T11:31:04;8.05;;;1.50;;
28988;SDS011;16089;59.952;10.818;2023-04-03T11:33:35;8.27;;;1.27;;
28988;SDS011;16089;59.952;10.818;2023-04-03T11:36:04;6.72;;;1.52;;
28988;SDS011;16089;59.952;10.818;2023-04-03T11:38:34;8.98;;;1.73;;
28988;SDS011;16089;59.952;10.818;2023-04-03T11:41:01;7.90;;;1.45;;
28988;SDS011;16089;59.952;10.818;2023-04-03T11:43:28;6.35;;;1.60;;
28988;SDS011;16089;59.952;10.818;2023-04-03T11:45:57;10.07;;;1.52;;
28988;SDS011;16089;59.952;10.818;2023-04-03T11:48:42;9.18;;;1.65;;
28988;SDS011;16089;59.952;10.818;2023-04-03T11:53:51;11.63;;;1.60;;
28988;SDS011;16089;59.952;10.818;2023-04-03T11:56:27;8.00;;;1.30;;
28988;SDS011;16089;59.952;10.818;2023-04-03T11:59:15;6.88;;;1.20;;
28988;SDS011;16089;59.952;10.818;2023-04-03T12:01:43;12.73;;;1.80;;
28988;SDS011;16089;59.952;10.818;2023-04-03T12:04:12;7.78;;;1.63;;
28988;SDS011;16089;59.952;10.818;2023-04-03T12:09:25;8.10;;;1.80;;
28988;SDS011;16089;59.952;10.818;2023-04-03T12:11:52;8.57;;;1.48;;
28988;SDS011;16089;59.952;10.818;2023-04-03T12:14:19;10.95;;;1.75;;
28988;SDS011;16089;59.952;10.818;2023-04-03T12:16:48;9.02;;;1.80;;
28988;SDS011;16089;59.952;10.818;2023-04-03T12:19:31;6.03;;;1.52;;
28988;SDS011;16089;59.952;10.818;2023-04-03T12:22:06;7.97;;;2.20;;
28988;SDS011;16089;59.952;10.818;2023-04-03T12:24:34;6.13;;;1.83;;
28988;SDS011;16089;59.952;10.818;2023-04-03T12:27:02;5.38;;;1.60;;
28988;SDS011;16089;59.952;10.818;2023-04-03T12:29:33;7.88;;;1.55;;
28988;SDS011;16089;59.952;10.818;2023-04-03T12:32:04;8.95;;;1.13;;
28988;SDS011;16089;59.952;10.818;2023-04-03T12:34:42;8.52;;;1.35;;
28988;SDS011;16089;59.952;10.818;2023-04-03T12:37:17;8.68;;;1.50;;
28988;SDS011;16089;59.952;10.818;2023-04-03T12:39:55;9.90;;;1.60;;
28988;SDS011;16089;59.952;10.818;2023-04-03T12:42:39;9.77;;;1.55;;
28988;SDS011;16089;59.952;10.818;2023-04-03T12:45:12;5.05;;;1.27;;
28988;SDS011;16089;59.952;10.818;2023-04-03T12:47:42;5.13;;;1.40;;
28988;SDS011;16089;59.952;10.818;2023-04-03T12:50:16;6.15;;;1.33;;
28988;SDS011;16089;59.952;10.818;2023-04-03T12:52:45;9.02;;;1.40;;
28988;SDS011;16089;59.952;10.818;2023-04-03T12:55:15;14.43;;;1.45;;
28988;SDS011;16089;59.952;10.818;2023-04-03T12:57:42;8.38;;;1.27;;
28988;SDS011;16089;59.952;10.818;2023-04-03T13:00:18;7.85;;;1.73;;
28988;SDS011;16089;59.952;10.818;2023-04-03T13:02:45;9.45;;;1.50;;
28988;SDS011;16089;59.952;10.818;2023-04-03T13:05:13;5.85;;;1.50;;
28988;SDS011;16089;59.952;10.818;2023-04-03T13:07:40;5.95;;;1.40;;
28988;SDS011;16089;59.952;10.818;2023-04-03T13:10:13;4.10;;;1.20;;
28988;SDS011;16089;59.952;10.818;2023-04-03T13:12:46;7.22;;;1.40;;
28988;SDS011;16089;59.952;10.818;2023-04-03T13:15:15;7.15;;;1.67;;
28988;SDS011;16089;59.952;10.818;2023-04-03T13:17:42;7.90;;;1.30;;
28988;SDS011;16089;59.952;10.818;2023-04-03T13:20:10;6.20;;;1.55;;
28988;SDS011;16089;59.952;10.818;2023-04-03T13:22:38;3.47;;;1.17;;
28988;SDS011;16089;59.952;10.818;2023-04-03T13:25:09;5.00;;;1.35;;
28988;SDS011;16089;59.952;10.818;2023-04-03T13:27:36;6.35;;;2.03;;
28988;SDS011;16089;59.952;10.818;2023-04-03T13:30:06;4.80;;;1.27;;
28988;SDS011;16089;59.952;10.818;2023-04-03T13:32:33;5.65;;;1.15;;
28988;SDS011;16089;59.952;10.818;2023-04-03T13:34:59;6.82;;;1.58;;
28988;SDS011;16089;59.952;10.818;2023-04-03T13:37:26;11.18;;;1.50;;
28988;SDS011;16089;59.952;10.818;2023-04-03T13:39:57;11.10;;;1.30;;
28988;SDS011;16089;59.952;10.818;2023-04-03T13:42:25;10.73;;;1.83;;
28988;SDS011;16089;59.952;10.818;2023-04-03T13:47:41;6.53;;;1.15;;
28988;SDS011;16089;59.952;10.818;2023-04-03T13:50:13;5.57;;;1.83;;
28988;SDS011;16089;59.952;10.818;2023-04-03T13:52:41;8.95;;;1.73;;
28988;SDS011;16089;59.952;10.818;2023-04-03T13:55:15;14.77;;;1.67;;
28988;SDS011;16089;59.952;10.818;2023-04-03T13:57:48;4.05;;;1.15;;
28988;SDS011;16089;59.952;10.818;2023-04-03T14:00:26;8.48;;;1.67;;
28988;SDS011;16089;59.952;10.818;2023-04-03T14:02:55;6.70;;;1.30;;
28988;SDS011;16089;59.952;10.818;2023-04-03T14:05:22;3.75;;;1.50;;
28988;SDS011;16089;59.952;10.818;2023-04-03T14:07:50;7.32;;;1.15;;
28988;SDS011;16089;59.952;10.818;2023-04-03T14:10:22;7.43;;;1.50;;
28988;SDS011;16089;59.952;10.818;2023-04-03T14:12:49;5.15;;;1.52;;
28988;SDS011;16089;59.952;10.818;2023-04-03T14:15:17;4.40;;;1.40;;
28988;SDS011;16089;59.952;10.818;2023-04-03T14:17:44;6.03;;;1.58;;
28988;SDS011;16089;59.952;10.818;2023-04-03T14:20:13;6.43;;;1.30;;
28988;SDS011;16089;59.952;10.818;2023-04-03T14:22:40;5.18;;;1.60;;
28988;SDS011;16089;59.952;10.818;2023-04-03T14:25:07;9.02;;;1.52;;
28988;SDS011;16089;59.952;10.818;2023-04-03T14:27:33;4.95;;;1.20;;
28988;SDS011;16089;59.952;10.818;2023-04-03T14:30:00;7.05;;;1.52;;
28988;SDS011;16089;59.952;10.818;2023-04-03T14:32:28;8.43;;;1.50;;
28988;SDS011;16089;59.952;10.818;2023-04-03T14:34:54;4.60;;;1.40;;
28988;SDS011;16089;59.952;10.818;2023-04-03T14:37:24;5.80;;;1.27;;
28988;SDS011;16089;59.952;10.818;2023-04-03T14:39:51;5.88;;;1.45;;
28988;SDS011;16089;59.952;10.818;2023-04-03T14:42:20;8.05;;;2.90;;
28988;SDS011;16089;59.952;10.818;2023-04-03T14:44:47;10.60;;;1.88;;
28988;SDS011;16089;59.952;10.818;2023-04-03T14:47:14;7.35;;;1.45;;
28988;SDS011;16089;59.952;10.818;2023-04-03T14:49:41;6.22;;;1.25;;